sensor_id;sensor_type;location;lat;lon;timestamp;temperature;humidity
33811;DHT22;20119;48.334;16.206;2022-07-06T00:01:08;14.10;99.90
33811;DHT22;20119;48.334;16.206;2022-07-06T00:03:37;14.10;99.90
33811;DHT22;20119;48.334;16.206;2022-07-06T00:06:05;14.00;99.90
33811;DHT22;20119;48.334;16.206;2022-07-06T00:08:35;14.10;99.90
33811;DHT22;20119;48.334;16.206;2022-07-06T00:11:03;14.00;99.90
33811;DHT22;20119;48.334;16.206;2022-07-06T00:13:31;14.10;99.90
33811;DHT22;20119;48.334;16.206;2022-07-06T00:15:59;14.20;99.90
33811;DHT22;20119;48.334;16.206;2022-07-06T00:18:26;14.10;99.90
33811;DHT22;20119;48.334;16.206;2022-07-06T00:20:56;14.10;99.90
33811;DHT22;20119;48.334;16.206;2022-07-06T00:23:23;14.10;99.90
33811;DHT22;20119;48.334;16.206;2022-07-06T00:25:53;14.10;99.90
33811;DHT22;20119;48.334;16.206;2022-07-06T00:28:21;14.10;99.90
33811;DHT22;20119;48.334;16.206;2022-07-06T00:30:51;14.10;99.90
33811;DHT22;20119;48.334;16.206;2022-07-06T00:33:18;14.00;99.90
33811;DHT22;20119;48.334;16.206;2022-07-06T03:16:41;13.80;99.90
33811;DHT22;20119;48.334;16.206;2022-07-06T03:27:01;14.00;99.90
33811;DHT22;20119;48.334;16.206;2022-07-06T03:39:58;14.70;99.90
33811;DHT22;20119;48.334;16.206;2022-07-06T03:42:24;14.90;99.90
33811;DHT22;20119;48.334;16.206;2022-07-06T03:44:52;15.10;99.90
33811;DHT22;20119;48.334;16.206;2022-07-06T03:49:55;15.50;99.90
33811;DHT22;20119;48.334;16.206;2022-07-06T03:52:26;15.60;99.90
33811;DHT22;20119;48.334;16.206;2022-07-06T03:54:54;15.70;99.90
33811;DHT22;20119;48.334;16.206;2022-07-06T03:57:23;16.00;99.90
33811;DHT22;20119;48.334;16.206;2022-07-06T03:59:51;16.30;99.90
33811;DHT22;20119;48.334;16.206;2022-07-06T04:02:19;16.40;99.90
33811;DHT22;20119;48.334;16.206;2022-07-06T04:04:48;16.60;99.90
33811;DHT22;20119;48.334;16.206;2022-07-06T04:07:15;17.00;99.90
33811;DHT22;20119;48.334;16.206;2022-07-06T04:09:43;17.60;99.90
33811;DHT22;20119;48.334;16.206;2022-07-06T04:12:10;18.30;99.90
33811;DHT22;20119;48.334;16.206;2022-07-06T04:14:40;18.70;99.90
33811;DHT22;20119;48.334;16.206;2022-07-06T04:17:07;18.80;99.90
33811;DHT22;20119;48.334;16.206;2022-07-06T04:19:48;19.30;99.90
33811;DHT22;20119;48.334;16.206;2022-07-06T04:22:16;19.70;99.90
33811;DHT22;20119;48.334;16.206;2022-07-06T04:24:46;20.00;99.90
33811;DHT22;20119;48.334;16.206;2022-07-06T04:27:14;20.10;99.90
33811;DHT22;20119;48.334;16.206;2022-07-06T04:29:42;20.10;99.90
33811;DHT22;20119;48.334;16.206;2022-07-06T04:32:09;20.40;99.90
33811;DHT22;20119;48.334;16.206;2022-07-06T04:34:37;21.00;99.90
33811;DHT22;20119;48.334;16.206;2022-07-06T04:37:04;21.20;99.90
33811;DHT22;20119;48.334;16.206;2022-07-06T04:39:32;20.30;99.90
33811;DHT22;20119;48.334;16.206;2022-07-06T04:42:00;19.90;99.90
33811;DHT22;20119;48.334;16.206;2022-07-06T04:44:27;19.40;99.90
33811;DHT22;20119;48.334;16.206;2022-07-06T04:46:57;19.10;99.90
33811;DHT22;20119;48.334;16.206;2022-07-06T04:49:25;19.40;99.90
33811;DHT22;20119;48.334;16.206;2022-07-06T04:51:52;19.70;99.90
33811;DHT22;20119;48.334;16.206;2022-07-06T04:54:21;19.90;99.90
33811;DHT22;20119;48.334;16.206;2022-07-06T04:56:49;20.20;99.90
33811;DHT22;20119;48.334;16.206;2022-07-06T04:59:17;20.70;99.90
33811;DHT22;20119;48.334;16.206;2022-07-06T05:01:44;21.30;99.90
33811;DHT22;20119;48.334;16.206;2022-07-06T05:04:13;21.50;99.90
33811;DHT22;20119;48.334;16.206;2022-07-06T05:06:42;21.50;99.90
33811;DHT22;20119;48.334;16.206;2022-07-06T05:09:12;21.60;99.90
33811;DHT22;20119;48.334;16.206;2022-07-06T05:11:40;22.10;99.90
33811;DHT22;20119;48.334;16.206;2022-07-06T05:14:07;22.10;99.90
33811;DHT22;20119;48.334;16.206;2022-07-06T05:16:35;22.00;99.90
33811;DHT22;20119;48.334;16.206;2022-07-06T05:19:03;22.30;99.90
33811;DHT22;20119;48.334;16.206;2022-07-06T05:21:41;22.80;99.90
33811;DHT22;20119;48.334;16.206;2022-07-06T05:24:15;23.60;99.90
33811;DHT22;20119;48.334;16.206;2022-07-06T05:27:02;23.70;99.90
33811;DHT22;20119;48.334;16.206;2022-07-06T05:29:50;24.10;99.90
33811;DHT22;20119;48.334;16.206;2022-07-06T05:32:46;24.70;99.90
33811;DHT22;20119;48.334;16.206;2022-07-06T05:35:47;24.90;99.90
33811;DHT22;20119;48.334;16.206;2022-07-06T05:38:22;25.00;99.90
33811;DHT22;20119;48.334;16.206;2022-07-06T05:41:08;25.00;99.90
33811;DHT22;20119;48.334;16.206;2022-07-06T05:44:01;24.80;99.90
33811;DHT22;20119;48.334;16.206;2022-07-06T05:47:01;24.60;99.90
33811;DHT22;20119;48.334;16.206;2022-07-06T05:49:46;25.10;99.90
33811;DHT22;20119;48.334;16.206;2022-07-06T05:52:31;25.60;99.90
33811;DHT22;20119;48.334;16.206;2022-07-06T05:55:07;26.00;99.90
33811;DHT22;20119;48.334;16.206;2022-07-06T05:57:43;25.70;99.90
33811;DHT22;20119;48.334;16.206;2022-07-06T06:00:30;26.00;99.90
33811;DHT22;20119;48.334;16.206;2022-07-06T06:03:15;25.60;99.90
33811;DHT22;20119;48.334;16.206;2022-07-06T06:06:19;25.40;99.90
33811;DHT22;20119;48.334;16.206;2022-07-06T06:09:25;25.90;99.90
33811;DHT22;20119;48.334;16.206;2022-07-06T06:12:24;24.40;99.90
33811;DHT22;20119;48.334;16.206;2022-07-06T06:15:08;24.50;99.90
33811;DHT22;20119;48.334;16.206;2022-07-06T06:17:46;24.10;99.90
33811;DHT22;20119;48.334;16.206;2022-07-06T06:20:31;24.50;99.90
33811;DHT22;20119;48.334;16.206;2022-07-06T06:23:06;25.80;99.90
33811;DHT22;20119;48.334;16.206;2022-07-06T06:25:43;26.50;99.90
33811;DHT22;20119;48.334;16.206;2022-07-06T06:32:21;26.30;99.90
33811;DHT22;20119;48.334;16.206;2022-07-06T06:35:21;26.10;99.90
33811;DHT22;20119;48.334;16.206;2022-07-06T06:38:21;26.30;99.90
33811;DHT22;20119;48.334;16.206;2022-07-06T06:41:08;27.20;99.90
33811;DHT22;20119;48.334;16.206;2022-07-06T06:44:05;26.30;99.90
33811;DHT22;20119;48.334;16.206;2022-07-06T06:46:56;26.10;99.90
33811;DHT22;20119;48.334;16.206;2022-07-06T06:49:36;26.10;99.90
33811;DHT22;20119;48.334;16.206;2022-07-06T06:52:34;26.60;99.90
33811;DHT22;20119;48.334;16.206;2022-07-06T06:55:15;26.50;99.90
33811;DHT22;20119;48.334;16.206;2022-07-06T06:57:49;26.40;99.90
33811;DHT22;20119;48.334;16.206;2022-07-06T07:00:54;26.30;99.90
33811;DHT22;20119;48.334;16.206;2022-07-06T07:03:34;26.80;99.90
33811;DHT22;20119;48.334;16.206;2022-07-06T07:06:41;27.50;99.90
33811;DHT22;20119;48.334;16.206;2022-07-06T07:09:58;28.20;99.90
33811;DHT22;20119;48.334;16.206;2022-07-06T07:13:30;28.10;99.90
33811;DHT22;20119;48.334;16.206;2022-07-06T07:16:30;27.50;99.90
33811;DHT22;20119;48.334;16.206;2022-07-06T07:19:39;27.90;99.90
33811;DHT22;20119;48.334;16.206;2022-07-06T07:22:39;28.30;99.90
33811;DHT22;20119;48.334;16.206;2022-07-06T07:27:51;29.10;99.90
33811;DHT22;20119;48.334;16.206;2022-07-06T07:30:38;28.20;99.90
33811;DHT22;20119;48.334;16.206;2022-07-06T07:33:30;27.40;99.90
33811;DHT22;20119;48.334;16.206;2022-07-06T07:36:09;26.30;99.90
33811;DHT22;20119;48.334;16.206;2022-07-06T07:38:46;25.70;99.90
33811;DHT22;20119;48.334;16.206;2022-07-06T07:41:28;25.40;99.90
33811;DHT22;20119;48.334;16.206;2022-07-06T07:44:06;24.80;99.90
33811;DHT22;20119;48.334;16.206;2022-07-06T07:46:40;24.60;99.90
33811;DHT22;20119;48.334;16.206;2022-07-06T07:49:14;24.80;99.90
33811;DHT22;20119;48.334;16.206;2022-07-06T07:51:43;25.50;99.90
33811;DHT22;20119;48.334;16.206;2022-07-06T07:54:15;26.00;99.90
33811;DHT22;20119;48.334;16.206;2022-07-06T07:56:46;26.80;99.90
33811;DHT22;20119;48.334;16.206;2022-07-06T07:59:17;27.50;99.90
33811;DHT22;20119;48.334;16.206;2022-07-06T08:01:49;27.70;99.90
33811;DHT22;20119;48.334;16.206;2022-07-06T08:04:22;27.80;99.90
33811;DHT22;20119;48.334;16.206;2022-07-06T08:07:00;27.80;99.90
33811;DHT22;20119;48.334;16.206;2022-07-06T08:09:52;28.70;99.90
33811;DHT22;20119;48.334;16.206;2022-07-06T08:15:11;28.70;99.90
33811;DHT22;20119;48.334;16.206;2022-07-06T08:17:40;29.20;99.90
33811;DHT22;20119;48.334;16.206;2022-07-06T08:20:09;29.10;99.90
33811;DHT22;20119;48.334;16.206;2022-07-06T08:22:47;29.20;99.90
33811;DHT22;20119;48.334;16.206;2022-07-06T08:25:57;29.70;99.90
33811;DHT22;20119;48.334;16.206;2022-07-06T08:28:53;29.10;99.90
33811;DHT22;20119;48.334;16.206;2022-07-06T08:31:45;29.00;99.90
33811;DHT22;20119;48.334;16.206;2022-07-06T08:40:46;31.20;99.90
33811;DHT22;20119;48.334;16.206;2022-07-06T08:43:52;31.70;99.90
33811;DHT22;20119;48.334;16.206;2022-07-06T08:46:57;31.70;99.90
33811;DHT22;20119;48.334;16.206;2022-07-06T08:55:52;30.10;99.90
33811;DHT22;20119;48.334;16.206;2022-07-06T08:58:38;29.50;99.90
33811;DHT22;20119;48.334;16.206;2022-07-06T09:01:19;29.60;99.90
33811;DHT22;20119;48.334;16.206;2022-07-06T09:14:28;29.20;99.90
33811;DHT22;20119;48.334;16.206;2022-07-06T09:17:47;29.10;99.90
33811;DHT22;20119;48.334;16.206;2022-07-06T09:23:22;31.90;99.70
33811;DHT22;20119;48.334;16.206;2022-07-06T09:27:19;30.70;99.90
33811;DHT22;20119;48.334;16.206;2022-07-06T09:33:08;30.10;99.90
33811;DHT22;20119;48.334;16.206;2022-07-06T09:36:11;29.50;99.90
33811;DHT22;20119;48.334;16.206;2022-07-06T09:39:14;29.50;99.90
33811;DHT22;20119;48.334;16.206;2022-07-06T09:53:38;29.10;99.90
33811;DHT22;20119;48.334;16.206;2022-07-06T09:56:06;27.90;99.90
33811;DHT22;20119;48.334;16.206;2022-07-06T09:58:38;27.90;99.90
33811;DHT22;20119;48.334;16.206;2022-07-06T10:01:25;27.80;99.90
33811;DHT22;20119;48.334;16.206;2022-07-06T10:03:56;27.20;99.90
33811;DHT22;20119;48.334;16.206;2022-07-06T10:06:30;27.20;99.90
33811;DHT22;20119;48.334;16.206;2022-07-06T10:09:00;27.80;99.90
33811;DHT22;20119;48.334;16.206;2022-07-06T10:11:30;28.00;99.90
33811;DHT22;20119;48.334;16.206;2022-07-06T10:14:07;29.10;99.90
33811;DHT22;20119;48.334;16.206;2022-07-06T10:16:38;28.30;99.90
33811;DHT22;20119;48.334;16.206;2022-07-06T10:19:08;27.10;99.90
33811;DHT22;20119;48.334;16.206;2022-07-06T10:21:40;26.20;99.90
33811;DHT22;20119;48.334;16.206;2022-07-06T10:24:10;25.90;99.90
33811;DHT22;20119;48.334;16.206;2022-07-06T10:26:43;25.90;99.90
33811;DHT22;20119;48.334;16.206;2022-07-06T10:29:10;25.60;99.90
33811;DHT22;20119;48.334;16.206;2022-07-06T10:31:40;26.00;99.90
33811;DHT22;20119;48.334;16.206;2022-07-06T10:34:12;25.40;99.90
33811;DHT22;20119;48.334;16.206;2022-07-06T10:36:40;25.30;99.90
33811;DHT22;20119;48.334;16.206;2022-07-06T10:39:11;25.60;99.90
33811;DHT22;20119;48.334;16.206;2022-07-06T10:41:57;25.80;99.90
33811;DHT22;20119;48.334;16.206;2022-07-06T10:44:29;26.30;99.90
33811;DHT22;20119;48.334;16.206;2022-07-06T10:47:01;26.20;99.90
33811;DHT22;20119;48.334;16.206;2022-07-06T10:49:32;26.20;99.90
33811;DHT22;20119;48.334;16.206;2022-07-06T10:52:19;26.90;99.90
33811;DHT22;20119;48.334;16.206;2022-07-06T10:54:57;26.30;99.90
33811;DHT22;20119;48.334;16.206;2022-07-06T10:57:52;26.10;99.90
33811;DHT22;20119;48.334;16.206;2022-07-06T11:00:22;25.70;99.90
33811;DHT22;20119;48.334;16.206;2022-07-06T11:02:54;25.40;99.90
33811;DHT22;20119;48.334;16.206;2022-07-06T11:05:40;25.20;99.90
33811;DHT22;20119;48.334;16.206;2022-07-06T11:08:11;24.00;99.90
33811;DHT22;20119;48.334;16.206;2022-07-06T11:10:53;24.30;99.90
33811;DHT22;20119;48.334;16.206;2022-07-06T11:13:28;24.70;99.90
33811;DHT22;20119;48.334;16.206;2022-07-06T11:16:11;25.20;99.90
33811;DHT22;20119;48.334;16.206;2022-07-06T11:18:48;25.90;99.90
33811;DHT22;20119;48.334;16.206;2022-07-06T11:21:21;26.50;99.90
33811;DHT22;20119;48.334;16.206;2022-07-06T11:23:52;26.70;99.90
33811;DHT22;20119;48.334;16.206;2022-07-06T11:26:25;27.20;99.90
33811;DHT22;20119;48.334;16.206;2022-07-06T11:28:56;27.10;99.90
33811;DHT22;20119;48.334;16.206;2022-07-06T11:31:33;26.90;99.90
33811;DHT22;20119;48.334;16.206;2022-07-06T11:34:02;27.10;99.90
33811;DHT22;20119;48.334;16.206;2022-07-06T11:36:30;27.50;99.90
33811;DHT22;20119;48.334;16.206;2022-07-06T11:38:58;27.00;99.90
33811;DHT22;20119;48.334;16.206;2022-07-06T11:41:29;27.40;99.90
33811;DHT22;20119;48.334;16.206;2022-07-06T11:43:56;27.80;99.90
33811;DHT22;20119;48.334;16.206;2022-07-06T11:46:26;27.80;99.90
33811;DHT22;20119;48.334;16.206;2022-07-06T11:48:54;27.50;99.90
33811;DHT22;20119;48.334;16.206;2022-07-06T11:51:23;26.90;99.90
33811;DHT22;20119;48.334;16.206;2022-07-06T11:53:55;26.70;99.90
33811;DHT22;20119;48.334;16.206;2022-07-06T11:56:24;27.10;99.90
33811;DHT22;20119;48.334;16.206;2022-07-06T11:58:58;26.80;99.90
33811;DHT22;20119;48.334;16.206;2022-07-06T12:01:28;27.10;99.90
33811;DHT22;20119;48.334;16.206;2022-07-06T12:03:57;27.30;99.90
33811;DHT22;20119;48.334;16.206;2022-07-06T12:06:26;27.20;99.90
33811;DHT22;20119;48.334;16.206;2022-07-06T12:08:56;27.50;99.90
33811;DHT22;20119;48.334;16.206;2022-07-06T12:11:26;27.30;99.90
33811;DHT22;20119;48.334;16.206;2022-07-06T12:13:57;27.50;99.90
33811;DHT22;20119;48.334;16.206;2022-07-06T12:16:29;27.10;99.90
33811;DHT22;20119;48.334;16.206;2022-07-06T12:18:58;27.60;99.90
33811;DHT22;20119;48.334;16.206;2022-07-06T12:21:25;28.10;99.90
33811;DHT22;20119;48.334;16.206;2022-07-06T12:23:54;28.00;99.90
33811;DHT22;20119;48.334;16.206;2022-07-06T12:26:22;27.80;99.90
33811;DHT22;20119;48.334;16.206;2022-07-06T12:29:03;27.40;99.90
33811;DHT22;20119;48.334;16.206;2022-07-06T12:31:35;27.10;99.90
33811;DHT22;20119;48.334;16.206;2022-07-06T12:34:04;27.30;99.90
33811;DHT22;20119;48.334;16.206;2022-07-06T12:36:43;27.20;99.90
33811;DHT22;20119;48.334;16.206;2022-07-06T12:39:13;27.40;99.90
33811;DHT22;20119;48.334;16.206;2022-07-06T12:41:47;27.50;99.90
33811;DHT22;20119;48.334;16.206;2022-07-06T12:44:22;27.80;99.90
33811;DHT22;20119;48.334;16.206;2022-07-06T12:47:02;27.80;99.90
33811;DHT22;20119;48.334;16.206;2022-07-06T12:49:30;27.70;99.90
33811;DHT22;20119;48.334;16.206;2022-07-06T12:52:00;27.60;99.90
33811;DHT22;20119;48.334;16.206;2022-07-06T12:54:29;27.10;99.90
33811;DHT22;20119;48.334;16.206;2022-07-06T12:57:05;26.80;99.70
33811;DHT22;20119;48.334;16.206;2022-07-06T12:59:37;26.60;99.90
33811;DHT22;20119;48.334;16.206;2022-07-06T13:02:06;26.20;99.90
33811;DHT22;20119;48.334;16.206;2022-07-06T13:04:35;26.20;99.90
33811;DHT22;20119;48.334;16.206;2022-07-06T13:07:18;26.20;99.90
33811;DHT22;20119;48.334;16.206;2022-07-06T13:09:47;26.20;99.90
33811;DHT22;20119;48.334;16.206;2022-07-06T13:12:15;26.10;99.90
33811;DHT22;20119;48.334;16.206;2022-07-06T13:14:47;26.00;99.90
33811;DHT22;20119;48.334;16.206;2022-07-06T13:17:15;26.20;99.90
33811;DHT22;20119;48.334;16.206;2022-07-06T13:19:43;26.40;99.90
33811;DHT22;20119;48.334;16.206;2022-07-06T13:22:11;26.30;99.90
33811;DHT22;20119;48.334;16.206;2022-07-06T13:24:40;26.20;99.90
33811;DHT22;20119;48.334;16.206;2022-07-06T13:27:09;26.30;99.90
33811;DHT22;20119;48.334;16.206;2022-07-06T13:29:36;26.00;99.90
33811;DHT22;20119;48.334;16.206;2022-07-06T13:32:07;25.80;99.90
33811;DHT22;20119;48.334;16.206;2022-07-06T13:34:35;25.90;99.90
33811;DHT22;20119;48.334;16.206;2022-07-06T13:37:04;25.60;99.90
33811;DHT22;20119;48.334;16.206;2022-07-06T13:39:32;25.70;99.90
33811;DHT22;20119;48.334;16.206;2022-07-06T13:42:00;25.80;99.90
33811;DHT22;20119;48.334;16.206;2022-07-06T13:44:28;25.80;99.90
33811;DHT22;20119;48.334;16.206;2022-07-06T13:46:56;26.20;99.90
33811;DHT22;20119;48.334;16.206;2022-07-06T13:49:26;26.10;99.90
33811;DHT22;20119;48.334;16.206;2022-07-06T13:51:53;25.20;99.90
33811;DHT22;20119;48.334;16.206;2022-07-06T13:54:28;25.00;99.90
33811;DHT22;20119;48.334;16.206;2022-07-06T13:56:55;25.10;99.90
33811;DHT22;20119;48.334;16.206;2022-07-06T13:59:23;25.00;99.90
33811;DHT22;20119;48.334;16.206;2022-07-06T14:01:52;25.20;99.90
33811;DHT22;20119;48.334;16.206;2022-07-06T14:04:20;25.10;99.90
33811;DHT22;20119;48.334;16.206;2022-07-06T14:06:50;24.90;99.90
33811;DHT22;20119;48.334;16.206;2022-07-06T14:09:18;24.70;99.90
33811;DHT22;20119;48.334;16.206;2022-07-06T14:11:46;24.50;99.90
33811;DHT22;20119;48.334;16.206;2022-07-06T14:14:15;24.50;99.90
33811;DHT22;20119;48.334;16.206;2022-07-06T14:16:43;24.20;99.90
33811;DHT22;20119;48.334;16.206;2022-07-06T14:19:12;24.10;99.90
33811;DHT22;20119;48.334;16.206;2022-07-06T14:21:39;23.90;99.90
33811;DHT22;20119;48.334;16.206;2022-07-06T14:24:12;23.90;99.90
33811;DHT22;20119;48.334;16.206;2022-07-06T14:26:43;23.90;99.90
33811;DHT22;20119;48.334;16.206;2022-07-06T14:29:11;23.90;99.90
33811;DHT22;20119;48.334;16.206;2022-07-06T14:31:38;23.40;99.90
33811;DHT22;20119;48.334;16.206;2022-07-06T14:34:06;23.20;99.90
33811;DHT22;20119;48.334;16.206;2022-07-06T14:36:35;22.90;99.90
33811;DHT22;20119;48.334;16.206;2022-07-06T14:41:44;21.80;99.90
33811;DHT22;20119;48.334;16.206;2022-07-06T14:44:24;21.60;99.90
33811;DHT22;20119;48.334;16.206;2022-07-06T14:54:38;22.00;99.90
33811;DHT22;20119;48.334;16.206;2022-07-06T14:57:07;22.10;99.90
33811;DHT22;20119;48.334;16.206;2022-07-06T14:59:35;22.30;99.90
33811;DHT22;20119;48.334;16.206;2022-07-06T15:02:03;22.70;99.90
33811;DHT22;20119;48.334;16.206;2022-07-06T15:04:33;23.20;99.90
33811;DHT22;20119;48.334;16.206;2022-07-06T15:07:01;23.70;99.90
33811;DHT22;20119;48.334;16.206;2022-07-06T15:09:31;23.70;99.90
33811;DHT22;20119;48.334;16.206;2022-07-06T15:11:58;24.10;99.90
33811;DHT22;20119;48.334;16.206;2022-07-06T15:14:27;24.40;99.90
33811;DHT22;20119;48.334;16.206;2022-07-06T15:16:56;24.80;99.90
33811;DHT22;20119;48.334;16.206;2022-07-06T15:19:24;24.80;99.90
33811;DHT22;20119;48.334;16.206;2022-07-06T15:21:53;24.80;99.90
33811;DHT22;20119;48.334;16.206;2022-07-06T15:24:22;24.80;99.90
33811;DHT22;20119;48.334;16.206;2022-07-06T15:26:52;25.00;99.90
33811;DHT22;20119;48.334;16.206;2022-07-06T15:29:20;24.90;99.90
33811;DHT22;20119;48.334;16.206;2022-07-06T15:31:50;24.70;99.90
33811;DHT22;20119;48.334;16.206;2022-07-06T15:34:19;24.70;99.90
33811;DHT22;20119;48.334;16.206;2022-07-06T15:36:47;24.70;99.90
33811;DHT22;20119;48.334;16.206;2022-07-06T15:39:16;24.60;99.90
33811;DHT22;20119;48.334;16.206;2022-07-06T15:41:45;24.80;99.90
33811;DHT22;20119;48.334;16.206;2022-07-06T15:44:14;25.00;99.90
33811;DHT22;20119;48.334;16.206;2022-07-06T15:46:42;25.00;99.90
33811;DHT22;20119;48.334;16.206;2022-07-06T15:49:15;25.00;99.90
33811;DHT22;20119;48.334;16.206;2022-07-06T15:51:43;25.00;99.90
33811;DHT22;20119;48.334;16.206;2022-07-06T15:54:11;24.80;99.90
33811;DHT22;20119;48.334;16.206;2022-07-06T15:56:40;24.70;99.90
33811;DHT22;20119;48.334;16.206;2022-07-06T15:59:11;24.70;99.90
33811;DHT22;20119;48.334;16.206;2022-07-06T16:01:38;24.60;99.90
33811;DHT22;20119;48.334;16.206;2022-07-06T16:04:06;24.90;99.90
33811;DHT22;20119;48.334;16.206;2022-07-06T16:06:38;24.80;99.90
33811;DHT22;20119;48.334;16.206;2022-07-06T16:09:05;25.10;99.90
33811;DHT22;20119;48.334;16.206;2022-07-06T16:11:33;25.30;99.90
33811;DHT22;20119;48.334;16.206;2022-07-06T16:14:01;25.40;99.90
33811;DHT22;20119;48.334;16.206;2022-07-06T16:16:29;25.30;99.90
33811;DHT22;20119;48.334;16.206;2022-07-06T16:18:59;25.40;99.90
33811;DHT22;20119;48.334;16.206;2022-07-06T16:21:28;25.50;99.90
33811;DHT22;20119;48.334;16.206;2022-07-06T16:23:58;25.40;99.90
33811;DHT22;20119;48.334;16.206;2022-07-06T16:26:25;25.30;99.90
33811;DHT22;20119;48.334;16.206;2022-07-06T16:28:52;25.20;99.90
33811;DHT22;20119;48.334;16.206;2022-07-06T16:31:21;25.10;99.90
33811;DHT22;20119;48.334;16.206;2022-07-06T16:33:50;25.00;99.90
33811;DHT22;20119;48.334;16.206;2022-07-06T16:36:19;25.00;99.90
33811;DHT22;20119;48.334;16.206;2022-07-06T16:38:52;25.00;99.90
33811;DHT22;20119;48.334;16.206;2022-07-06T16:41:23;24.80;99.90
33811;DHT22;20119;48.334;16.206;2022-07-06T16:43:50;24.60;99.90
33811;DHT22;20119;48.334;16.206;2022-07-06T16:46:18;24.40;99.90
33811;DHT22;20119;48.334;16.206;2022-07-06T16:48:46;24.50;99.90
33811;DHT22;20119;48.334;16.206;2022-07-06T16:51:14;24.30;99.90
33811;DHT22;20119;48.334;16.206;2022-07-06T16:53:42;24.20;99.90
33811;DHT22;20119;48.334;16.206;2022-07-06T16:56:09;24.10;99.90
33811;DHT22;20119;48.334;16.206;2022-07-06T16:58:39;23.90;99.90
33811;DHT22;20119;48.334;16.206;2022-07-06T17:01:06;24.00;99.90
33811;DHT22;20119;48.334;16.206;2022-07-06T17:03:34;24.00;99.90
33811;DHT22;20119;48.334;16.206;2022-07-06T17:06:02;24.00;99.90
33811;DHT22;20119;48.334;16.206;2022-07-06T17:08:29;24.10;99.90
33811;DHT22;20119;48.334;16.206;2022-07-06T17:10:58;24.20;99.90
33811;DHT22;20119;48.334;16.206;2022-07-06T17:13:29;24.10;99.90
33811;DHT22;20119;48.334;16.206;2022-07-06T17:15:59;24.10;99.90
33811;DHT22;20119;48.334;16.206;2022-07-06T17:18:26;23.90;99.90
33811;DHT22;20119;48.334;16.206;2022-07-06T17:20:54;23.80;99.90
33811;DHT22;20119;48.334;16.206;2022-07-06T17:23:22;23.80;99.90
33811;DHT22;20119;48.334;16.206;2022-07-06T17:25:50;23.70;99.90
33811;DHT22;20119;48.334;16.206;2022-07-06T17:28:22;23.60;99.90
33811;DHT22;20119;48.334;16.206;2022-07-06T17:30:51;23.50;99.90
33811;DHT22;20119;48.334;16.206;2022-07-06T17:33:21;23.60;99.90
33811;DHT22;20119;48.334;16.206;2022-07-06T17:35:50;23.40;99.90
33811;DHT22;20119;48.334;16.206;2022-07-06T17:38:18;23.10;99.90
33811;DHT22;20119;48.334;16.206;2022-07-06T17:40:46;22.70;99.90
33811;DHT22;20119;48.334;16.206;2022-07-06T17:43:13;22.60;99.90
33811;DHT22;20119;48.334;16.206;2022-07-06T17:45:41;22.40;99.90
33811;DHT22;20119;48.334;16.206;2022-07-06T17:48:09;22.30;99.90
33811;DHT22;20119;48.334;16.206;2022-07-06T17:50:38;22.20;99.90
33811;DHT22;20119;48.334;16.206;2022-07-06T17:53:06;22.10;99.90
33811;DHT22;20119;48.334;16.206;2022-07-06T17:55:33;22.10;99.90
33811;DHT22;20119;48.334;16.206;2022-07-06T17:58:02;22.10;99.90
33811;DHT22;20119;48.334;16.206;2022-07-06T18:00:32;22.20;99.90
33811;DHT22;20119;48.334;16.206;2022-07-06T18:03:00;22.00;99.90
33811;DHT22;20119;48.334;16.206;2022-07-06T18:05:28;21.90;99.90
33811;DHT22;20119;48.334;16.206;2022-07-06T18:07:58;21.80;99.90
33811;DHT22;20119;48.334;16.206;2022-07-06T18:10:27;21.70;99.90
33811;DHT22;20119;48.334;16.206;2022-07-06T18:12:55;21.60;99.90
33811;DHT22;20119;48.334;16.206;2022-07-06T18:15:23;21.60;99.90
33811;DHT22;20119;48.334;16.206;2022-07-06T18:17:50;21.60;99.90
33811;DHT22;20119;48.334;16.206;2022-07-06T18:20:17;21.40;99.90
33811;DHT22;20119;48.334;16.206;2022-07-06T18:22:47;21.40;99.90
33811;DHT22;20119;48.334;16.206;2022-07-06T18:25:15;21.30;99.90
33811;DHT22;20119;48.334;16.206;2022-07-06T18:27:43;21.20;99.90
33811;DHT22;20119;48.334;16.206;2022-07-06T18:30:12;21.10;99.90
33811;DHT22;20119;48.334;16.206;2022-07-06T18:32:39;21.00;99.90
33811;DHT22;20119;48.334;16.206;2022-07-06T18:35:08;20.90;99.90
33811;DHT22;20119;48.334;16.206;2022-07-06T18:37:36;20.90;99.90
33811;DHT22;20119;48.334;16.206;2022-07-06T18:40:05;20.80;99.90
33811;DHT22;20119;48.334;16.206;2022-07-06T18:42:35;20.60;99.90
33811;DHT22;20119;48.334;16.206;2022-07-06T18:45:05;20.50;99.90
33811;DHT22;20119;48.334;16.206;2022-07-06T18:47:33;20.40;99.90
33811;DHT22;20119;48.334;16.206;2022-07-06T18:50:01;20.40;99.90
33811;DHT22;20119;48.334;16.206;2022-07-06T18:52:33;20.30;99.90
33811;DHT22;20119;48.334;16.206;2022-07-06T18:55:02;20.20;99.90
33811;DHT22;20119;48.334;16.206;2022-07-06T18:57:30;20.10;99.90
33811;DHT22;20119;48.334;16.206;2022-07-06T18:59:59;19.90;99.90
33811;DHT22;20119;48.334;16.206;2022-07-06T19:02:27;19.80;99.90
33811;DHT22;20119;48.334;16.206;2022-07-06T19:04:56;19.70;99.90
33811;DHT22;20119;48.334;16.206;2022-07-06T19:07:30;19.60;99.90
33811;DHT22;20119;48.334;16.206;2022-07-06T19:10:03;19.60;99.90
33811;DHT22;20119;48.334;16.206;2022-07-06T19:12:31;19.50;99.90
33811;DHT22;20119;48.334;16.206;2022-07-06T19:15:00;19.40;99.90
33811;DHT22;20119;48.334;16.206;2022-07-06T19:17:28;19.30;99.90
33811;DHT22;20119;48.334;16.206;2022-07-06T19:19:56;19.30;99.90
33811;DHT22;20119;48.334;16.206;2022-07-06T19:22:24;19.20;99.90
33811;DHT22;20119;48.334;16.206;2022-07-06T19:24:53;19.20;99.90
33811;DHT22;20119;48.334;16.206;2022-07-06T19:27:20;19.00;99.90
33811;DHT22;20119;48.334;16.206;2022-07-06T19:29:47;19.00;99.90
33811;DHT22;20119;48.334;16.206;2022-07-06T19:32:20;18.90;99.90
33811;DHT22;20119;48.334;16.206;2022-07-06T19:34:48;18.80;99.90
33811;DHT22;20119;48.334;16.206;2022-07-06T19:37:16;18.80;99.90
33811;DHT22;20119;48.334;16.206;2022-07-06T19:39:53;18.70;99.90
33811;DHT22;20119;48.334;16.206;2022-07-06T19:42:25;18.70;99.90
33811;DHT22;20119;48.334;16.206;2022-07-06T19:52:47;18.30;99.90
33811;DHT22;20119;48.334;16.206;2022-07-06T19:57:50;18.30;99.90
33811;DHT22;20119;48.334;16.206;2022-07-06T20:08:05;17.90;99.90
33811;DHT22;20119;48.334;16.206;2022-07-06T20:10:33;17.80;99.90
33811;DHT22;20119;48.334;16.206;2022-07-06T20:13:04;17.80;99.90
33811;DHT22;20119;48.334;16.206;2022-07-06T20:15:32;17.80;99.90